createdAt,value
2024-01-20T00:02:20.878Z,16.48
2024-01-20T00:04:54.429Z,16.60
2024-01-20T00:07:28.139Z,16.69
2024-01-20T00:10:01.488Z,16.54
2024-01-20T00:12:36.192Z,16.70
2024-01-20T00:15:12.500Z,16.54
2024-01-20T00:17:46.718Z,16.53
2024-01-20T00:20:20.865Z,16.51
2024-01-20T00:22:54.497Z,16.49
2024-01-20T00:25:27.892Z,16.48
2024-01-20T00:28:01.923Z,16.46
2024-01-20T00:30:35.665Z,16.49
2024-01-20T00:33:09.869Z,16.51
2024-01-20T00:35:45.773Z,16.48
2024-01-20T00:38:19.335Z,16.46
2024-01-20T00:40:52.819Z,16.47
2024-01-20T00:43:26.257Z,16.44
2024-01-20T00:45:59.570Z,16.49
2024-01-20T00:48:32.976Z,16.54
2024-01-20T00:51:06.901Z,16.57
2024-01-20T00:53:40.321Z,16.66
2024-01-20T00:56:13.731Z,16.71
2024-01-20T00:58:47.149Z,16.67
2024-01-20T01:01:20.610Z,16.58
2024-01-20T01:03:54.450Z,16.51
2024-01-20T01:06:27.858Z,16.60
2024-01-20T01:09:01.167Z,16.53
2024-01-20T01:11:34.589Z,16.44
2024-01-20T01:14:08.004Z,16.55
2024-01-20T01:16:41.562Z,16.59
2024-01-20T01:19:16.802Z,16.53
2024-01-20T01:21:50.124Z,16.58
2024-01-20T01:24:23.428Z,16.63
2024-01-20T01:26:56.787Z,16.66
2024-01-20T01:29:30.203Z,16.65
2024-01-20T01:32:03.773Z,16.67
2024-01-20T01:34:37.141Z,16.66
2024-01-20T01:37:10.686Z,16.66
2024-01-20T01:39:44.149Z,16.69
2024-01-20T01:42:17.482Z,16.62
2024-01-20T01:44:50.771Z,16.64
2024-01-20T01:47:25.087Z,16.63
2024-01-20T01:49:58.741Z,16.58
2024-01-20T01:52:33.328Z,16.52
2024-01-20T01:55:07.733Z,16.62
2024-01-20T01:57:43.412Z,16.53
2024-01-20T02:00:17.277Z,16.54
2024-01-20T02:02:50.723Z,16.48
2024-01-20T02:05:24.337Z,16.43
2024-01-20T02:07:59.464Z,16.53
2024-01-20T02:10:33.776Z,16.54
2024-01-20T02:13:07.993Z,16.50
2024-01-20T02:15:42.689Z,16.46
2024-01-20T02:18:16.328Z,16.48
2024-01-20T02:20:49.762Z,16.60
2024-01-20T02:23:23.189Z,16.56
2024-01-20T02:25:56.666Z,16.49
2024-01-20T02:28:29.997Z,16.49
2024-01-20T02:31:03.283Z,16.48
2024-01-20T02:33:36.617Z,16.41
2024-01-20T02:36:10.681Z,16.45
2024-01-20T02:38:43.997Z,16.52
2024-01-20T02:41:17.374Z,16.57
2024-01-20T02:43:50.744Z,16.46
2024-01-20T02:46:24.002Z,16.61
2024-01-20T02:48:57.516Z,16.51
2024-01-20T02:51:30.950Z,16.52
2024-01-20T02:54:04.527Z,16.68
2024-01-20T02:56:37.851Z,16.62
2024-01-20T02:59:11.209Z,16.69
2024-01-20T03:01:44.496Z,16.63
2024-01-20T03:04:17.995Z,16.61
2024-01-20T03:06:51.423Z,16.58
2024-01-20T03:09:24.911Z,16.55
2024-01-20T03:11:58.336Z,16.68
2024-01-20T03:14:31.680Z,16.58
2024-01-20T03:17:05.146Z,16.59
2024-01-20T03:19:38.548Z,16.58
2024-01-20T03:22:11.905Z,16.61
2024-01-20T03:24:45.259Z,16.58
2024-01-20T03:27:20.700Z,16.60
2024-01-20T03:29:54.130Z,16.52
2024-01-20T03:32:27.456Z,16.54
2024-01-20T03:35:00.960Z,16.54
2024-01-20T03:37:34.266Z,16.42
2024-01-20T03:40:09.853Z,16.45
2024-01-20T03:42:43.192Z,16.37
2024-01-20T03:45:16.742Z,16.46
2024-01-20T03:47:50.151Z,16.41
2024-01-20T03:50:23.811Z,16.42
2024-01-20T03:52:57.165Z,16.20
2024-01-20T03:55:30.440Z,16.33
2024-01-20T03:58:03.823Z,16.38
2024-01-20T04:00:37.509Z,16.40
2024-01-20T04:03:10.900Z,16.32
2024-01-20T04:05:44.362Z,16.29
2024-01-20T04:08:17.790Z,16.34
2024-01-20T04:10:51.697Z,16.37
2024-01-20T04:13:24.997Z,16.38
2024-01-20T04:15:58.568Z,16.33
2024-01-20T04:18:32.002Z,16.35
2024-01-20T04:21:07.172Z,16.52
2024-01-20T04:23:40.575Z,16.57
2024-01-20T04:26:13.969Z,16.63
2024-01-20T04:28:47.300Z,16.57
2024-01-20T04:31:20.757Z,16.48
2024-01-20T04:33:54.762Z,16.59
2024-01-20T04:36:28.415Z,16.61
2024-01-20T04:39:01.870Z,16.57
2024-01-20T04:41:35.194Z,16.64
2024-01-20T04:44:08.816Z,16.63
2024-01-20T04:46:42.130Z,16.55
2024-01-20T04:49:15.752Z,16.55
2024-01-20T04:51:49.247Z,16.56
2024-01-20T04:54:22.683Z,16.55
2024-01-20T04:56:56.139Z,16.53
2024-01-20T04:59:29.482Z,16.41
2024-01-20T05:02:02.780Z,16.42
2024-01-20T05:04:36.257Z,16.33
2024-01-20T05:07:10.256Z,16.35
2024-01-20T05:09:43.847Z,16.30
2024-01-20T05:12:17.277Z,16.33
2024-01-20T05:14:50.640Z,16.26
2024-01-20T05:17:24.087Z,16.26
2024-01-20T05:19:57.634Z,16.32
2024-01-20T05:22:31.057Z,16.36
2024-01-20T05:25:04.855Z,16.34
2024-01-20T05:27:38.428Z,16.31
2024-01-20T05:30:14.112Z,16.32
2024-01-20T05:32:49.140Z,16.26
2024-01-20T05:35:24.090Z,16.30
2024-01-20T05:37:57.363Z,16.24
2024-01-20T05:40:30.657Z,16.19
2024-01-20T05:43:05.359Z,16.21
2024-01-20T05:45:38.781Z,16.17
2024-01-20T05:48:12.367Z,16.25
2024-01-20T05:50:46.887Z,16.35
2024-01-20T05:53:21.348Z,16.40
2024-01-20T05:55:54.750Z,16.31
2024-01-20T05:58:28.069Z,16.27
2024-01-20T06:01:01.396Z,16.36
2024-01-20T06:03:34.899Z,16.35
2024-01-20T06:06:10.264Z,16.25
2024-01-20T06:08:44.927Z,16.30
2024-01-20T06:11:18.427Z,16.28
2024-01-20T06:13:51.818Z,16.17
2024-01-20T06:16:25.111Z,16.16
2024-01-20T06:18:58.546Z,16.17
2024-01-20T06:21:31.994Z,16.17
2024-01-20T06:24:05.710Z,16.13
2024-01-20T06:26:39.007Z,16.07
2024-01-20T06:29:12.846Z,16.05
2024-01-20T06:31:46.405Z,16.10
2024-01-20T06:34:19.800Z,16.01
2024-01-20T06:36:53.431Z,16.01
2024-01-20T06:39:27.297Z,16.03
2024-01-20T06:42:00.708Z,16.11
2024-01-20T06:44:34.144Z,15.98
2024-01-20T06:47:08.335Z,16.01
2024-01-20T06:49:44.539Z,15.96
2024-01-20T06:52:17.993Z,15.99
2024-01-20T06:54:52.140Z,15.93
2024-01-20T06:57:25.504Z,15.88
2024-01-20T06:59:58.887Z,15.90
2024-01-20T07:02:34.528Z,15.87
2024-01-20T07:05:10.876Z,15.92
2024-01-20T07:07:44.631Z,15.86
2024-01-20T07:10:19.396Z,15.85
2024-01-20T07:12:52.710Z,15.87
2024-01-20T07:15:26.087Z,15.88
2024-01-20T07:18:00.742Z,15.91
2024-01-20T07:20:34.221Z,15.94
2024-01-20T07:23:08.244Z,15.90
2024-01-20T07:25:41.639Z,15.87
2024-01-20T07:28:15.275Z,15.83
2024-01-20T07:30:48.657Z,15.83
2024-01-20T07:33:22.134Z,15.81
2024-01-20T07:35:55.514Z,15.79
2024-01-20T07:38:28.991Z,15.78
2024-01-20T07:41:03.409Z,15.82
2024-01-20T07:43:36.875Z,15.78
2024-01-20T07:46:11.612Z,15.77
2024-01-20T07:48:45.195Z,15.78
2024-01-20T07:51:18.614Z,15.77
2024-01-20T07:53:51.957Z,15.75
2024-01-20T07:56:25.319Z,15.72
2024-01-20T07:58:59.017Z,15.72
2024-01-20T08:01:32.477Z,15.72
2024-01-20T08:04:06.570Z,15.69
2024-01-20T08:06:41.748Z,15.72
2024-01-20T08:09:16.167Z,15.71
2024-01-20T08:11:49.512Z,15.70
2024-01-20T08:14:22.808Z,15.65
2024-01-20T08:16:56.154Z,15.67
2024-01-20T08:19:29.633Z,15.69
2024-01-20T08:22:03.061Z,15.65
2024-01-20T08:24:36.485Z,15.67
2024-01-20T08:27:09.963Z,15.67
2024-01-20T08:29:43.349Z,15.66
2024-01-20T08:32:16.657Z,15.64
2024-01-20T08:34:50.159Z,15.62
2024-01-20T08:37:23.520Z,15.60
2024-01-20T08:39:56.844Z,15.64
2024-01-20T08:42:30.404Z,15.64
2024-01-20T08:45:04.402Z,15.64
2024-01-20T08:47:38.345Z,15.68
2024-01-20T08:50:13.112Z,15.60
2024-01-20T08:52:46.392Z,15.57
2024-01-20T08:55:19.940Z,15.57
2024-01-20T08:57:53.626Z,15.59
2024-01-20T09:00:26.951Z,15.59
2024-01-20T09:03:00.553Z,15.66
2024-01-20T09:05:38.215Z,15.60
2024-01-20T09:08:12.865Z,15.59
2024-01-20T09:10:46.406Z,15.59
2024-01-20T09:13:20.170Z,15.57
2024-01-20T09:15:53.809Z,15.57
2024-01-20T09:18:27.365Z,15.59
2024-01-20T09:21:00.917Z,15.60
2024-01-20T09:23:34.249Z,15.54
2024-01-20T09:26:07.763Z,15.55
2024-01-20T09:28:41.184Z,15.55
2024-01-20T09:31:15.071Z,15.51
2024-01-20T09:33:48.564Z,15.50
2024-01-20T09:36:22.172Z,15.50
2024-01-20T09:38:55.559Z,15.58
2024-01-20T09:41:30.375Z,15.50
2024-01-20T09:44:03.934Z,15.69
2024-01-20T09:46:38.238Z,15.71
2024-01-20T09:49:11.802Z,15.76
2024-01-20T09:51:53.919Z,15.87
2024-01-20T09:54:28.754Z,15.58
2024-01-20T09:57:02.411Z,15.56
2024-01-20T09:59:36.239Z,15.76
2024-01-20T10:02:12.634Z,15.66
2024-01-20T10:04:49.305Z,15.65
2024-01-20T10:07:33.131Z,15.60
2024-01-20T10:10:07.459Z,15.62
2024-01-20T10:12:41.009Z,15.58
2024-01-20T10:15:14.735Z,15.53
2024-01-20T10:17:48.571Z,15.73
2024-01-20T10:20:27.243Z,15.78
2024-01-20T10:23:04.819Z,15.88
2024-01-20T10:25:38.358Z,15.92
2024-01-20T10:28:13.107Z,15.73
2024-01-20T10:30:46.740Z,15.26
2024-01-20T10:33:20.281Z,15.38
2024-01-20T10:35:54.190Z,15.56
2024-01-20T10:38:30.298Z,15.69
2024-01-20T10:41:05.006Z,15.82
2024-01-20T10:43:49.368Z,15.85
2024-01-20T10:46:28.646Z,15.83
2024-01-20T10:49:06.560Z,15.78
2024-01-20T10:51:40.607Z,15.74
2024-01-20T10:54:15.170Z,15.66
2024-01-20T10:56:48.656Z,15.75
2024-01-20T10:59:25.857Z,15.63
2024-01-20T11:01:59.764Z,15.66
2024-01-20T11:04:41.647Z,15.71
2024-01-20T11:07:15.518Z,15.66
2024-01-20T11:09:59.582Z,15.66
2024-01-20T11:12:33.274Z,15.68
2024-01-20T11:15:12.835Z,15.65
2024-01-20T11:17:46.226Z,15.68
2024-01-20T11:20:20.285Z,15.64
2024-01-20T11:22:54.627Z,15.65
2024-01-20T11:25:35.089Z,15.58
2024-01-20T11:28:08.817Z,15.61
2024-01-20T11:30:42.481Z,15.74
2024-01-20T11:33:16.831Z,15.65
2024-01-20T11:35:53.263Z,15.66
2024-01-20T11:38:26.928Z,15.67
2024-01-20T11:41:04.605Z,15.66
2024-01-20T11:43:38.298Z,15.74
2024-01-20T11:46:12.357Z,15.76
2024-01-20T11:48:48.397Z,15.77
2024-01-20T11:51:23.337Z,15.74
2024-01-20T11:53:56.797Z,15.75
2024-01-20T11:56:30.127Z,15.68
2024-01-20T11:59:03.507Z,15.65
2024-01-20T12:01:38.310Z,15.73
2024-01-20T12:04:11.760Z,15.67
2024-01-20T12:06:45.223Z,15.68
2024-01-20T12:09:19.425Z,15.64
2024-01-20T12:11:52.992Z,15.71
2024-01-20T12:14:28.020Z,15.63
2024-01-20T12:17:01.520Z,15.62
2024-01-20T12:19:35.021Z,15.61
2024-01-20T12:22:09.200Z,15.61
2024-01-20T12:24:48.707Z,15.65
2024-01-20T12:27:22.065Z,15.62
2024-01-20T12:29:55.797Z,15.66
2024-01-20T12:32:29.238Z,15.59
2024-01-20T12:35:02.641Z,15.59
2024-01-20T12:37:35.956Z,15.63
2024-01-20T12:40:11.581Z,15.65
2024-01-20T12:42:45.031Z,15.61
2024-01-20T12:45:18.465Z,15.55
2024-01-20T12:47:51.897Z,15.54
2024-01-20T12:50:25.279Z,15.54
2024-01-20T12:52:58.677Z,15.60
2024-01-20T12:55:32.165Z,15.61
2024-01-20T12:58:05.694Z,15.67
2024-01-20T13:00:39.089Z,15.67
2024-01-20T13:03:12.617Z,15.76
2024-01-20T13:05:46.545Z,15.78
2024-01-20T13:08:20.491Z,15.77
2024-01-20T13:10:53.996Z,15.84
2024-01-20T13:13:29.557Z,15.72
2024-01-20T13:16:03.407Z,15.49
2024-01-20T13:18:37.022Z,15.64
2024-01-20T13:21:11.612Z,15.76
2024-01-20T13:23:47.073Z,15.59
2024-01-20T13:26:20.673Z,15.77
2024-01-20T13:28:54.763Z,15.79
2024-01-20T13:31:28.168Z,15.59
2024-01-20T13:34:01.839Z,15.66
2024-01-20T13:36:35.252Z,15.52
2024-01-20T13:39:09.343Z,15.60
2024-01-20T13:41:43.345Z,15.49
2024-01-20T13:44:16.658Z,15.63
2024-01-20T13:46:50.001Z,15.71
2024-01-20T13:49:23.483Z,15.72
2024-01-20T13:51:56.881Z,15.69
2024-01-20T13:54:30.189Z,15.73
2024-01-20T13:57:03.980Z,15.71
2024-01-20T13:59:38.241Z,15.71
2024-01-20T14:02:11.653Z,15.68
2024-01-20T14:04:46.870Z,15.59
2024-01-20T14:07:20.332Z,15.66
2024-01-20T14:09:53.723Z,15.69
2024-01-20T14:12:27.111Z,15.67
2024-01-20T14:15:00.548Z,15.67
2024-01-20T14:17:34.008Z,15.50
2024-01-20T14:20:10.181Z,15.54
2024-01-20T14:22:43.481Z,15.51
2024-01-20T14:25:17.973Z,15.53
2024-01-20T14:27:51.647Z,15.58
2024-01-20T14:30:25.054Z,15.69
2024-01-20T14:32:58.418Z,15.53
2024-01-20T14:35:31.761Z,15.64
2024-01-20T14:38:05.343Z,15.53
2024-01-20T14:40:38.767Z,15.51
2024-01-20T14:43:12.241Z,15.41
2024-01-20T14:45:46.006Z,15.51
2024-01-20T14:48:19.565Z,15.51
2024-01-20T14:50:52.946Z,15.59
2024-01-20T14:53:26.264Z,15.55
2024-01-20T14:55:59.614Z,15.51
2024-01-20T14:58:33.188Z,15.47
2024-01-20T15:01:06.687Z,15.40
2024-01-20T15:03:40.101Z,15.40
2024-01-20T15:06:14.059Z,15.48
2024-01-20T15:08:47.401Z,15.47
2024-01-20T15:11:20.928Z,15.41
2024-01-20T15:13:54.222Z,15.56
2024-01-20T15:16:27.565Z,15.63
2024-01-20T15:19:00.953Z,15.51
2024-01-20T15:21:34.528Z,15.49
2024-01-20T15:24:08.572Z,15.46
2024-01-20T15:26:41.949Z,15.41
2024-01-20T15:29:15.413Z,15.51
2024-01-20T15:31:48.717Z,15.55
2024-01-20T15:34:22.208Z,15.64
2024-01-20T15:36:55.798Z,15.55
2024-01-20T15:39:29.419Z,15.57
2024-01-20T15:42:03.213Z,15.61
2024-01-20T15:44:36.638Z,15.60
2024-01-20T15:47:10.110Z,15.62
2024-01-20T15:49:44.988Z,15.64
2024-01-20T15:52:18.569Z,15.70
2024-01-20T15:54:52.105Z,15.71
2024-01-20T15:57:25.519Z,15.82
2024-01-20T15:59:58.885Z,15.87
2024-01-20T16:02:32.209Z,15.89
2024-01-20T16:05:06.288Z,15.80
2024-01-20T16:07:39.660Z,15.83
2024-01-20T16:10:13.972Z,15.79
2024-01-20T16:12:47.393Z,15.81
2024-01-20T16:15:21.824Z,15.77
2024-01-20T16:17:55.595Z,15.78
2024-01-20T16:20:29.012Z,15.81
2024-01-20T16:23:02.327Z,15.76
2024-01-20T16:25:36.039Z,15.75
2024-01-20T16:28:10.275Z,15.78
2024-01-20T16:30:43.661Z,15.90
2024-01-20T16:33:19.062Z,15.79
2024-01-20T16:35:52.533Z,15.85
2024-01-20T16:38:25.932Z,15.86
2024-01-20T16:41:00.029Z,15.89
2024-01-20T16:43:33.549Z,15.87
2024-01-20T16:46:07.145Z,15.90
2024-01-20T16:48:40.878Z,15.85
2024-01-20T16:51:22.081Z,15.89
2024-01-20T16:53:58.102Z,15.96
2024-01-20T16:56:31.436Z,16.01
2024-01-20T16:59:04.757Z,16.01
2024-01-20T17:01:38.298Z,16.01
2024-01-20T17:04:11.791Z,16.04
2024-01-20T17:06:45.249Z,16.07
2024-01-20T17:09:18.682Z,16.14
2024-01-20T17:11:52.308Z,16.14
2024-01-20T17:14:26.129Z,16.19
2024-01-20T17:16:59.686Z,16.14
2024-01-20T17:19:33.979Z,16.11
2024-01-20T17:22:07.626Z,16.16
2024-01-20T17:24:41.658Z,16.22
2024-01-20T17:27:15.043Z,16.31
2024-01-20T17:29:49.031Z,16.33
2024-01-20T17:32:22.357Z,16.30
2024-01-20T17:34:56.119Z,16.22
2024-01-20T17:37:29.820Z,16.24
2024-01-20T17:40:04.518Z,16.29
2024-01-20T17:42:37.957Z,16.36
2024-01-20T17:45:12.630Z,16.40
2024-01-20T17:47:47.152Z,16.33
2024-01-20T17:50:20.755Z,16.23
2024-01-20T17:52:54.268Z,16.12
2024-01-20T17:55:31.396Z,16.24
2024-01-20T17:58:05.057Z,16.19
2024-01-20T18:00:39.856Z,16.29
2024-01-20T18:03:13.305Z,16.35
2024-01-20T18:05:47.013Z,16.33
2024-01-20T18:08:20.659Z,16.38
2024-01-20T18:10:55.190Z,16.34
2024-01-20T18:13:28.681Z,16.41
2024-01-20T18:16:02.195Z,16.48
2024-01-20T18:18:35.719Z,16.49
2024-01-20T18:21:10.675Z,16.45
2024-01-20T18:23:44.373Z,16.48
2024-01-20T18:26:17.652Z,16.42
2024-01-20T18:28:51.143Z,16.47
2024-01-20T18:31:24.570Z,16.44
2024-01-20T18:33:58.834Z,16.42
2024-01-20T18:36:32.266Z,16.43
2024-01-20T18:39:05.791Z,16.52
2024-01-20T18:41:39.232Z,16.45
2024-01-20T18:44:12.563Z,16.53
2024-01-20T18:47:11.970Z,16.56
2024-01-20T18:49:45.596Z,16.52
2024-01-20T18:52:19.157Z,16.53
2024-01-20T18:54:54.951Z,16.41
2024-01-20T18:57:28.598Z,16.51
2024-01-20T19:00:02.358Z,16.59
2024-01-20T19:02:35.959Z,16.66
2024-01-20T19:05:09.734Z,16.65
2024-01-20T19:07:43.211Z,16.58
2024-01-20T19:10:17.082Z,16.61
2024-01-20T19:12:50.531Z,16.64
2024-01-20T19:15:24.226Z,16.64
2024-01-20T19:17:57.797Z,16.64
2024-01-20T19:20:33.513Z,16.59
2024-01-20T19:23:07.049Z,16.62
2024-01-20T19:25:40.473Z,16.68
2024-01-20T19:28:13.831Z,16.69
2024-01-20T19:30:47.222Z,16.62
2024-01-20T19:33:20.707Z,16.65
2024-01-20T19:35:54.268Z,16.68
2024-01-20T19:38:27.646Z,16.68
2024-01-20T19:41:01.032Z,16.63
2024-01-20T19:43:36.285Z,16.67
2024-01-20T19:46:10.062Z,16.81
2024-01-20T19:48:43.493Z,16.75
2024-01-20T19:51:19.862Z,16.74
2024-01-20T19:53:53.234Z,16.74
2024-01-20T19:56:26.639Z,16.64
2024-01-20T19:58:59.940Z,16.72
2024-01-20T20:01:33.285Z,16.72
2024-01-20T20:04:07.365Z,16.50
2024-01-20T20:06:40.799Z,16.61
2024-01-20T20:09:14.470Z,16.79
2024-01-20T20:11:48.389Z,16.80
2024-01-20T20:14:24.482Z,16.69
2024-01-20T20:16:58.541Z,16.81
2024-01-20T20:19:33.136Z,16.78
2024-01-20T20:22:10.129Z,16.73
2024-01-20T20:24:45.891Z,16.68
2024-01-20T20:27:20.920Z,16.74
2024-01-20T20:29:54.606Z,16.80
2024-01-20T20:32:28.129Z,16.70
2024-01-20T20:35:01.538Z,16.73
2024-01-20T20:37:34.931Z,16.70
2024-01-20T20:40:11.840Z,16.72
2024-01-20T20:42:45.271Z,16.69
2024-01-20T20:45:18.741Z,16.72
2024-01-20T20:47:52.184Z,16.79
2024-01-20T20:50:25.524Z,16.73
2024-01-20T20:52:58.976Z,16.69
2024-01-20T20:55:32.340Z,16.68
2024-01-20T20:58:05.847Z,16.66
2024-01-20T21:00:39.254Z,16.69
2024-01-20T21:03:12.894Z,16.70
2024-01-20T21:05:48.991Z,16.78
2024-01-20T21:08:22.351Z,16.74
2024-01-20T21:10:56.267Z,16.73
2024-01-20T21:13:29.638Z,16.66
2024-01-20T21:16:02.912Z,16.80
2024-01-20T21:18:36.655Z,16.71
2024-01-20T21:21:10.707Z,16.78
2024-01-20T21:23:45.934Z,16.73
2024-01-20T21:26:24.918Z,16.74
2024-01-20T21:28:58.304Z,16.82
2024-01-20T21:31:31.758Z,16.78
2024-01-20T21:34:05.084Z,16.77
2024-01-20T21:36:38.510Z,16.74
2024-01-20T21:39:13.216Z,16.81
2024-01-20T21:41:46.658Z,16.75
2024-01-20T21:44:20.073Z,16.76
2024-01-20T21:46:53.361Z,16.70
2024-01-20T21:49:27.183Z,16.72
2024-01-20T21:52:00.565Z,16.65
2024-01-20T21:54:34.019Z,16.67
2024-01-20T21:57:07.831Z,16.72
2024-01-20T21:59:41.173Z,16.72
2024-01-20T22:02:15.127Z,16.71
2024-01-20T22:04:48.476Z,16.72
2024-01-20T22:07:21.921Z,16.76
2024-01-20T22:09:56.443Z,16.78
2024-01-20T22:12:29.737Z,16.75
2024-01-20T22:15:03.920Z,16.67
2024-01-20T22:17:37.487Z,16.73
2024-01-20T22:20:14.440Z,16.73
2024-01-20T22:22:48.388Z,16.75
2024-01-20T22:25:22.178Z,16.70
2024-01-20T22:27:56.507Z,16.76
2024-01-20T22:30:29.960Z,16.68
2024-01-20T22:33:05.180Z,16.71
2024-01-20T22:35:38.630Z,16.74
2024-01-20T22:38:11.954Z,16.71
2024-01-20T22:40:45.447Z,16.71
2024-01-20T22:43:18.809Z,16.72
2024-01-20T22:45:52.215Z,16.75
2024-01-20T22:48:25.670Z,16.76
2024-01-20T22:50:59.120Z,16.79
2024-01-20T22:53:34.104Z,16.76
2024-01-20T22:56:08.000Z,16.74
2024-01-20T22:58:41.561Z,16.69
2024-01-20T23:01:17.265Z,16.84
2024-01-20T23:03:50.931Z,16.86
2024-01-20T23:06:24.554Z,16.79
2024-01-20T23:08:58.085Z,16.89
2024-01-20T23:11:31.431Z,16.85
2024-01-20T23:14:04.754Z,16.91
2024-01-20T23:16:38.067Z,16.72
2024-01-20T23:19:12.319Z,16.77
2024-01-20T23:21:45.829Z,16.85
2024-01-20T23:24:19.187Z,16.78
2024-01-20T23:26:52.477Z,16.76
2024-01-20T23:29:26.198Z,16.78
2024-01-20T23:31:59.492Z,16.69
2024-01-20T23:34:33.509Z,16.71
2024-01-20T23:37:06.979Z,16.75
2024-01-20T23:39:40.295Z,16.82
2024-01-20T23:42:13.703Z,16.83
2024-01-20T23:44:47.114Z,16.82
2024-01-20T23:47:20.532Z,16.86
2024-01-20T23:49:53.769Z,16.88
2024-01-20T23:52:27.173Z,16.84
2024-01-20T23:55:00.529Z,16.87
2024-01-20T23:57:34.253Z,16.82
